Latest Weather Observations for Amberley

IDQ60901

Issued at 1:55 pm EST Friday 19 September 2014 (issued every 10 minutes, with the page automatically refreshed every 10 minutes)

About weather observations | Map of Brisbane area stations | Latest observations for Brisbane area | Other Formats
Station Details ID: 040004 Name: AMBERLEY AMO Lat: -27.63 Lon: 152.71 Height: 24.2 m
Data from the previous 72 hours. | See also: Recent months at Amberley
Date/Time
EST
Tmp

°C
App
Tmp
°C
Dew
Point
°C
Rel
Hum
%
Delta-T

°C
Wind Press
QNH
hPa
Press
MSL
hPa
Rain
since
9 am
mm
Dir
 
Spd
km/h
Gust
km/h
Spd
kts
Gust
kts
19/01:30pm 25.4 21.3 -0.3 18 11.8 NNE 11 19 6 10 1016.8 - 0.0
19/01:00pm 25.5 21.5 -2.3 16 12.3 NW 9 15 5 8 1017.4 - 0.0
19/12:30pm 25.0 21.1 -1.8 17 11.9 WNW 9 20 5 11 1018.3 - 0.0
19/12:00pm 23.3 19.5 3.8 28 9.5 NNW 13 19 7 10 1018.7 1018.6 0.0
19/11:30am 23.3 20.4 4.4 29 9.3 NW 9 19 5 10 1019.4 - 0.0
19/11:00am 22.3 19.5 6.9 37 7.9 NNW 11 20 6 11 1020.0 - 0.0
19/10:30am 21.8 19.5 7.5 39 7.4 WSW 9 17 5 9 1020.6 - 0.0
19/10:00am 20.4 18.2 7.8 44 6.5 W 9 13 5 7 1021.1 - 0.0
19/09:30am 18.8 16.9 7.6 48 5.7 E 7 11 4 6 1021.4 - 0.0
19/09:00am 17.9 15.9 7.1 49 5.4 NNW 7 13 4 7 1021.8 1021.8 0.0
19/08:30am 15.6 14.1 7.0 56 4.2 SW 4 7 2 4 1021.7 - 0.0
19/07:30am 11.6 11.1 7.7 77 1.9 CALM 0 0 0 0 1021.7 - 0.0
19/07:00am 9.4 8.7 6.8 84 1.2 CALM 0 0 0 0 1021.5 - 0.0
19/06:30am 6.7 5.7 5.8 94 0.4 CALM 0 0 0 0 1020.9 - 0.0
19/06:00am 4.2 2.7 3.0 92 0.5 CALM 0 0 0 0 1020.6 1020.6 0.0
19/05:43am 4.2 2.8 3.7 97 0.2 CALM 0 0 0 0 1020.6 - 0.0
19/05:30am 4.7 3.3 3.7 93 0.4 CALM 0 0 0 0 1020.5 - 0.0
19/05:00am 5.0 3.7 4.0 93 0.4 CALM 0 0 0 0 1020.3 - 0.0
19/04:42am 5.4 4.2 4.5 94 0.4 CALM 0 0 0 0 1019.8 - 0.0
19/04:30am 5.5 4.3 4.8 95 0.3 CALM 0 0 0 0 1019.9 - 0.0
19/04:21am 5.0 3.7 4.3 95 0.3 CALM 0 0 0 0 1019.7 - 0.0
19/04:00am 5.6 4.5 4.9 95 0.3 CALM 0 0 0 0 1019.5 - 0.0
19/03:30am 6.4 5.3 5.3 93 0.5 CALM 0 0 0 0 1019.0 - 0.0
19/03:29am 6.4 5.3 5.3 93 0.5 CALM 0 0 0 0 1019.0 - 0.0
19/03:10am 5.0 3.7 4.3 95 0.3 CALM 0 0 0 0 1019.2 - 0.0
19/03:00am 5.6 4.5 4.9 95 0.3 CALM 0 0 0 0 1019.2 1019.1 0.0
19/02:30am 6.4 5.3 5.0 91 0.6 CALM 0 0 0 0 1019.3 - 0.0
19/02:00am 6.3 5.3 5.6 95 0.3 CALM 0 0 0 0 1019.3 - 0.0
19/01:30am 7.7 6.9 6.4 91 0.6 CALM 0 6 0 3 1019.6 - 0.0
19/01:00am 7.9 5.7 6.1 88 0.8 NW 7 11 4 6 1019.5 - 0.0
19/12:30am 9.8 8.6 6.6 80 1.5 NW 2 6 1 3 1019.9 - 0.0
19/12:00am 8.7 7.5 6.3 85 1.1 E 2 9 1 5 1020.2 1020.1 0.0
 
Date/Time
EST
Tmp

°C
App
Tmp
°C
Dew
Point
°C
Rel
Hum
%
Delta-T

°C
Wind Press
QNH
hPa
Press
MSL
hPa
Rain
since
9 am
mm
Dir
 
Spd
km/h
Gust
km/h
Spd
kts
Gust
kts
18/11:30pm 10.5 9.8 6.9 78 1.7 CALM 0 0 0 0 1020.1 - 0.0
18/11:00pm 11.9 11.1 6.6 70 2.5 CALM 0 0 0 0 1020.0 - 0.0
18/10:30pm 10.8 10.1 6.8 76 1.9 CALM 0 0 0 0 1019.8 - 0.0
18/10:00pm 14.8 13.2 8.0 64 3.4 E 6 9 3 5 1019.7 - 0.0
18/09:30pm 14.9 13.9 7.4 61 3.7 ESE 2 9 1 5 1019.4 - 0.0
18/09:00pm 17.2 14.6 7.9 54 4.7 E 11 15 6 8 1019.3 1019.2 0.0
18/08:30pm 17.6 13.7 7.2 50 5.2 ENE 17 19 9 10 1018.9 - 0.0
18/08:00pm 18.0 14.1 7.2 49 5.4 E 17 22 9 12 1018.6 - 0.0
18/07:30pm 18.4 13.9 6.8 46 5.8 ENE 20 26 11 14 1018.3 - 0.0
18/07:00pm 19.0 13.9 6.0 42 6.4 ENE 22 30 12 16 1017.8 - 0.0
18/06:30pm 20.0 14.3 5.0 37 7.3 ENE 24 33 13 18 1017.2 - 0.0
18/06:00pm 20.6 15.5 3.9 33 8.0 ENE 20 30 11 16 1016.5 1016.4 0.0
18/05:30pm 23.0 19.1 -1.6 19 10.8 S 9 15 5 8 1015.9 - 0.0
18/05:00pm 25.8 22.8 -1.5 16 12.3 SW 4 11 2 6 1015.5 - 0.0
18/04:30pm 26.1 21.9 -1.2 16 12.4 SW 11 17 6 9 1015.2 - 0.0
18/04:00pm 26.3 21.5 -6.3 11 13.5 W 11 17 6 9 1014.9 - 0.0
18/03:30pm 26.0 21.3 -8.6 9 13.7 WNW 9 15 5 8 1014.8 - 0.0
18/03:00pm 26.5 22.2 -4.5 12 13.3 SSW 9 17 5 9 1014.9 1014.8 0.0
18/02:30pm 26.8 21.6 -5.9 11 13.7 WSW 13 22 7 12 1015.2 - 0.0
18/02:00pm 25.7 19.7 -6.5 11 13.2 W 17 26 9 14 1015.4 - 0.0
18/01:30pm 25.9 21.2 -4.7 13 13.0 W 11 20 6 11 1015.7 - 0.0
18/01:00pm 25.4 20.9 -3.5 14 12.5 WSW 11 22 6 12 1016.3 - 0.0
18/12:30pm 24.7 19.8 -3.4 15 12.1 SSW 13 20 7 11 1016.7 - 0.0
18/12:00pm 24.2 20.2 -1.9 17 11.5 W 9 13 5 7 1017.1 1017.0 0.0
18/11:30am 24.0 18.8 -2.8 16 11.6 SSW 15 26 8 14 1017.7 - 0.0
18/11:00am 24.4 18.0 -4.8 14 12.2 SW 20 32 11 17 1018.1 - 0.0
18/10:30am 23.4 17.7 -3.4 16 11.4 SW 17 28 9 15 1018.7 - 0.0
18/10:00am 22.6 15.7 -2.6 18 10.8 SW 24 39 13 21 1019.0 - 0.0
18/09:30am 22.3 18.8 -1.1 21 10.3 WSW 7 13 4 7 1019.3 - 0.0
18/09:00am 20.8 17.5 -1.5 22 9.6 SSW 6 11 3 6 1019.6 1019.5 0.0
18/08:30am 19.6 16.6 2.2 31 8.0 S 7 11 4 6 1019.7 - 0.0
18/08:00am 17.4 14.7 3.6 40 6.4 NW 7 9 4 5 1019.7 - 0.0
18/07:30am 14.4 12.5 5.0 53 4.4 NNW 4 7 2 4 1019.6 - 0.0
18/07:00am 10.7 9.8 5.9 72 2.2 CALM 0 0 0 0 1019.3 - 0.0
18/06:30am 7.0 5.1 4.9 86 0.9 N 4 9 2 5 1018.8 - 0.0
18/06:00am 6.1 4.7 3.7 84 1.0 CALM 0 0 0 0 1018.6 1018.5 0.0
18/05:30am 5.9 4.6 4.0 88 0.8 CALM 0 0 0 0 1018.2 - 0.0
18/05:00am 6.8 5.4 3.7 80 1.3 CALM 0 6 0 3 1017.7 - 0.0
18/04:30am 7.3 6.0 4.0 79 1.4 CALM 0 0 0 0 1017.3 - 0.0
18/04:00am 6.5 4.4 3.7 82 1.2 NNW 4 9 2 5 1016.9 - 0.0
18/03:30am 8.3 7.1 4.4 76 1.7 CALM 0 0 0 0 1016.6 - 0.0
18/03:00am 8.4 7.2 4.5 76 1.7 CALM 0 0 0 0 1016.2 1016.1 0.0
18/02:30am 8.4 7.1 4.3 75 1.8 CALM 0 0 0 0 1016.1 - 0.0
18/02:00am 8.0 5.5 4.6 79 1.5 NW 7 11 4 6 1016.0 - 0.0
18/01:30am 8.2 5.6 4.3 76 1.7 N 7 9 4 5 1015.9 - 0.0
18/01:00am 10.8 7.6 3.2 59 3.3 SW 9 9 5 5 1015.6 - 0.0
18/12:30am 9.5 6.9 4.3 70 2.3 SSW 7 9 4 5 1015.6 - 0.0
18/12:00am 9.5 8.1 3.5 66 2.6 CALM 0 0 0 0 1015.6 1015.5 0.0
 
Date/Time
EST
Tmp

°C
App
Tmp
°C
Dew
Point
°C
Rel
Hum
%
Delta-T

°C
Wind Press
QNH
hPa
Press
MSL
hPa
Rain
since
9 am
mm
Dir
 
Spd
km/h
Gust
km/h
Spd
kts
Gust
kts
17/11:30pm 10.3 9.1 4.5 67 2.6 CALM 0 0 0 0 1015.5 - 0.0
17/11:00pm 11.1 9.9 4.4 63 3.0 CALM 0 0 0 0 1015.4 - 0.0
17/10:30pm 11.4 9.9 2.9 56 3.7 CALM 0 0 0 0 1015.1 - 0.0
17/10:00pm 13.2 11.2 2.2 47 4.8 SSW 2 7 1 4 1015.0 - 0.0
17/09:30pm 13.0 11.4 2.2 48 4.7 CALM 0 0 0 0 1014.9 - 0.0
17/09:00pm 14.8 12.0 2.1 42 5.6 SSW 6 11 3 6 1014.6 1014.5 0.0
17/08:41pm 15.1 11.8 2.6 43 5.6 SW 9 11 5 6 1014.4 - 0.0
17/08:30pm 20.1 16.5 0.7 27 8.7 SW 9 11 5 6 1014.3 - 0.0
17/08:00pm 21.2 17.2 0.3 25 9.4 WSW 11 13 6 7 1014.0 - 0.0
17/07:30pm 21.2 16.7 -0.1 24 9.5 W 13 17 7 9 1013.6 - 0.0
17/07:00pm 21.8 16.7 -1.7 20 10.2 W 15 17 8 9 1013.1 - 0.0
17/06:30pm 23.0 17.8 -2.4 18 11.0 WSW 15 20 8 11 1012.6 - 0.0
17/06:00pm 23.8 18.1 -3.7 16 11.7 W 17 22 9 12 1012.1 1012.0 0.0
17/05:30pm 25.4 18.4 -6.7 11 13.1 WSW 22 32 12 17 1011.7 - 0.0
17/05:00pm 26.9 19.4 -4.3 12 13.5 W 26 32 14 17 1011.2 - 0.0
17/04:30pm 27.8 20.2 -5.5 11 14.2 W 26 39 14 21 1010.9 - 0.0
17/04:00pm 28.5 21.1 -3.3 12 14.2 W 26 33 14 18 1010.6 - 0.0
17/03:30pm 28.5 21.1 -3.3 12 14.2 W 26 39 14 21 1010.5 - 0.0
17/03:00pm 28.4 21.5 -2.6 13 14.0 W 24 39 13 21 1010.6 1010.5 0.0
17/02:30pm 28.5 21.8 -3.9 12 14.3 W 22 28 12 15 1010.8 - 0.0
17/02:00pm 28.4 19.4 -3.1 12 14.1 W 35 43 19 23 1011.1 - 0.0
17/01:30pm 28.5 20.6 -4.4 11 14.4 W 28 39 15 21 1011.5 - 0.0
17/01:00pm 28.9 21.7 -2.2 13 14.2 W 26 41 14 22 1012.0 - 0.0
17/12:30pm 27.4 20.2 -2.0 14 13.3 WSW 26 37 14 20 1012.5 - 0.0
17/12:08pm 27.4 19.8 -2.0 14 13.3 W 28 46 15 25 1013.0 - 0.0
17/12:00pm 26.9 21.0 -2.4 14 13.1 WSW 19 33 10 18 1013.1 1013.0 0.0
17/11:30am 27.0 20.8 -0.3 17 12.7 W 22 35 12 19 1013.5 - 0.0
17/11:00am 25.9 21.0 2.0 21 11.5 SW 17 26 9 14 1014.2 - 0.0
17/10:30am 26.3 20.8 0.5 18 12.1 W 19 33 10 18 1014.8 - 0.0
17/10:00am 25.0 20.7 1.2 21 11.2 WNW 13 28 7 15 1015.1 - 0.0
17/09:30am 24.1 20.8 2.3 24 10.4 NW 9 15 5 8 1015.5 - 0.0
17/09:00am 23.1 20.2 4.7 30 9.1 WNW 9 13 5 7 1015.6 1015.5 0.0
17/08:30am 19.4 18.8 10.5 56 4.8 SSW 4 9 2 5 1015.8 - 0.0
17/08:00am 16.6 15.8 11.6 72 2.7 SSW 7 11 4 6 1015.6 - 0.0
17/07:30am 14.1 13.5 12.3 89 1.0 SSW 7 9 4 5 1015.5 - 0.0
17/07:00am 12.7 11.8 10.8 88 1.0 SSW 6 9 3 5 1015.4 - 0.0
17/06:30am 8.9 7.8 8.3 96 0.3 SSW 4 9 2 5 1014.8 - 0.0
17/06:00am 8.5 6.7 7.9 96 0.3 SSW 7 11 4 6 1014.4 1014.3 0.0
17/05:37am 9.0 6.9 8.4 96 0.3 SSW 9 11 5 6 1014.2 - 0.0
17/05:30am 9.1 7.5 8.7 97 0.2 SSW 7 11 4 6 1014.0 - 0.0
17/05:00am 9.6 9.0 9.0 96 0.3 SSW 2 7 1 4 1013.7 - 0.0
17/04:58am 9.3 8.4 9.3 100 0.0 SSW 4 7 2 4 1013.6 - 0.0
17/04:30am 9.1 8.3 8.3 95 0.4 SSW 2 7 1 4 1013.4 - 0.0
17/04:00am 9.4 8.3 8.4 93 0.5 SSW 4 7 2 4 1013.2 - 0.0
17/03:30am 10.0 8.4 8.8 92 0.6 SSW 7 11 4 6 1012.9 - 0.0
17/03:00am 10.9 9.2 9.7 92 0.6 SSW 9 11 5 6 1012.7 1012.6 0.0
17/02:30am 11.0 9.9 9.8 92 0.6 SSW 6 7 3 4 1012.6 - 0.0
17/02:00am 12.0 10.9 10.5 90 0.8 SSW 7 9 4 5 1012.6 - 0.0
17/01:30am 12.5 11.4 10.6 88 1.0 SSW 7 9 4 5 1012.7 - 0.0
17/01:00am 14.1 14.6 11.5 84 1.4 CALM 0 0 0 0 1012.8 - 0.0
17/12:30am 14.4 15.0 12.0 85 1.3 CALM 0 0 0 0 1012.9 - 0.0
17/12:00am 14.7 14.0 11.9 83 1.5 E 7 9 4 5 1012.6 1012.5 0.0
 
Date/Time
EST
Tmp

°C
App
Tmp
°C
Dew
Point
°C
Rel
Hum
%
Delta-T

°C
Wind Press
QNH
hPa
Press
MSL
hPa
Rain
since
9 am
mm
Dir
 
Spd
km/h
Gust
km/h
Spd
kts
Gust
kts
16/11:30pm 16.4 15.7 12.0 75 2.4 NNE 7 9 4 5 1012.7 - 0.0
16/11:00pm 17.3 16.3 12.4 73 2.7 N 9 11 5 6 1012.8 - 0.0
16/10:30pm 14.5 13.4 12.1 85 1.3 N 9 11 5 6 1012.8 - 0.0
16/10:00pm 16.5 16.3 12.9 79 2.0 W 6 9 3 5 1012.7 - 0.0
16/09:30pm 17.0 18.0 13.3 79 2.1 CALM 0 0 0 0 1012.6 - 0.0
16/09:00pm 17.5 17.0 12.8 74 2.6 ENE 7 9 4 5 1012.3 1012.2 0.0
16/08:30pm 17.9 16.8 12.1 69 3.2 E 9 11 5 6 1012.1 - 0.0
16/08:00pm 19.7 18.7 12.2 62 4.2 NE 9 11 5 6 1011.8 - 0.0
16/07:30pm 20.0 19.2 12.9 63 4.0 N 9 13 5 7 1011.7 - 0.0
16/07:00pm 21.3 20.0 13.7 62 4.4 NNE 13 17 7 9 1011.7 - 0.0
16/06:30pm 22.8 20.5 13.1 54 5.6 SE 17 20 9 11 1011.2 - 0.0
16/06:00pm 23.4 22.8 13.4 53 5.8 NE 9 15 5 8 1010.7 1010.6 0.0
16/05:30pm 24.7 22.3 10.0 39 8.1 N 13 20 7 11 1010.1 - 0.0
16/05:00pm 25.3 21.7 10.7 40 8.2 NE 20 30 11 16 1009.4 - 0.0
16/04:30pm 27.2 23.4 13.5 42 8.1 ENE 26 35 14 19 1009.3 - 0.0
16/04:00pm 27.0 23.0 13.0 42 8.2 ENE 26 33 14 18 1009.1 - 0.0
16/03:30pm 27.5 23.6 13.3 41 8.4 ENE 26 33 14 18 1009.4 - 0.0
16/03:00pm 30.0 25.9 8.5 26 11.9 NE 20 32 11 17 1009.7 1009.6 0.0
16/02:30pm 30.0 25.6 4.8 20 13.1 NNW 17 33 9 18 1010.1 - 0.0
16/02:00pm 29.6 25.6 5.0 21 12.8 NNW 15 30 8 16 1010.4 - 0.0

Latest Capital City Observations: Canberra | Sydney | Melbourne | Brisbane | Adelaide | Perth | Hobart | Darwin

Other Formats:

Comma delimited format used in spreadsheet applications
http://www.bom.gov.au/fwo/IDQ60901/IDQ60901.94568.axf

JavaScript Object Notation format (JSON) in row-major order
http://www.bom.gov.au/fwo/IDQ60901/IDQ60901.94568.json